Time;durP1;ratioP1;P1;durP2;ratioP2;P2;SDS_P1;SDS_P2;PMS_P1;PMS_P2;Temp;Humidity;BMP_temperature;BMP_pressure;BME280_temperature;BME280_humidity;BME280_pressure;Samples;Min_cycle;Max_cycle;Signal;HPM_P1;HPM_P2
2020/12/16 00:01:18;;;;;;;42.00;27.77;;;4.10;99.90;;;;;;4989758;28;20256;-67
2020/12/16 00:03:45;;;;;;;39.13;27.03;;;4.00;99.90;;;;;;4988371;28;20547;-67
2020/12/16 00:06:11;;;;;;;45.37;28.17;;;3.90;99.90;;;;;;4988837;28;20233;-68
2020/12/16 00:08:38;;;;;;;45.07;27.60;;;3.90;99.90;;;;;;4991107;28;20655;-69
2020/12/16 00:11:05;;;;;;;44.27;27.30;;;3.80;99.90;;;;;;4988592;28;20221;-68
2020/12/16 00:13:32;;;;;;;45.10;28.93;;;3.70;99.90;;;;;;4988883;28;20206;-68
2020/12/16 00:15:58;;;;;;;40.60;27.07;;;3.60;99.90;;;;;;4988302;28;20256;-68
2020/12/16 00:18:24;;;;;;;44.90;27.27;;;3.60;99.90;;;;;;4989702;28;20237;-68
2020/12/16 00:20:51;;;;;;;44.23;27.60;;;3.60;99.90;;;;;;4988318;28;20202;-68
2020/12/16 00:23:17;;;;;;;41.37;27.57;;;3.50;99.90;;;;;;4988227;28;20205;-69
2020/12/16 00:25:44;;;;;;;49.60;29.63;;;3.50;99.90;;;;;;4989909;28;20682;-68
2020/12/16 00:28:11;;;;;;;49.87;29.90;;;3.60;99.90;;;;;;4986527;28;20202;-69
2020/12/16 00:30:39;;;;;;;39.57;26.70;;;3.60;99.90;;;;;;4988242;28;20264;-69
2020/12/16 00:33:05;;;;;;;57.50;31.57;;;3.70;99.90;;;;;;4988181;28;20216;-69
2020/12/16 00:35:32;;;;;;;64.50;34.03;;;3.60;99.90;;;;;;4985556;28;20236;-69
2020/12/16 00:37:58;;;;;;;56.90;32.23;;;3.70;99.90;;;;;;4988222;28;20208;-69
2020/12/16 00:40:25;;;;;;;53.23;31.10;;;3.70;99.90;;;;;;4990839;28;20202;-68
2020/12/16 00:42:52;;;;;;;50.93;30.03;;;3.70;99.90;;;;;;4988736;28;20204;-68
2020/12/16 00:45:21;;;;;;;52.70;30.30;;;3.80;99.90;;;;;;4990091;28;20230;-68
2020/12/16 00:47:47;;;;;;;53.90;32.53;;;3.70;99.90;;;;;;4985700;28;21023;-68
2020/12/16 00:50:14;;;;;;;50.87;32.57;;;3.70;99.90;;;;;;4989418;28;20228;-68
2020/12/16 00:52:40;;;;;;;59.40;32.30;;;3.70;99.90;;;;;;4988793;28;20328;-68
2020/12/16 00:55:07;;;;;;;52.03;32.43;;;3.70;99.90;;;;;;4989386;28;20318;-68
2020/12/16 00:57:33;;;;;;;51.83;31.70;;;3.70;99.90;;;;;;4987564;28;20201;-67
2020/12/16 01:00:00;;;;;;;51.07;31.70;;;3.60;99.90;;;;;;4990749;28;20304;-68
2020/12/16 01:02:28;;;;;;;63.03;33.33;;;3.60;99.90;;;;;;4989656;28;20198;-68
2020/12/16 01:04:55;;;;;;;56.97;33.03;;;3.60;99.90;;;;;;4987960;28;20205;-67
2020/12/16 01:07:21;;;;;;;51.77;32.50;;;3.70;99.90;;;;;;4989523;28;20202;-68
2020/12/16 01:09:47;;;;;;;57.53;34.13;;;3.70;99.90;;;;;;4988647;28;20203;-68
2020/12/16 01:12:14;;;;;;;53.77;32.67;;;3.70;99.90;;;;;;4990700;28;20596;-68
2020/12/16 01:14:40;;;;;;;62.70;35.27;;;3.70;99.90;;;;;;4986809;28;20236;-68
2020/12/16 01:17:09;;;;;;;63.90;34.57;;;3.70;99.90;;;;;;4989699;28;20247;-68
2020/12/16 01:19:37;;;;;;;57.10;33.80;;;3.70;99.90;;;;;;4987792;28;20327;-68
2020/12/16 01:22:03;;;;;;;58.20;34.63;;;3.70;99.90;;;;;;4986644;28;20962;-68
2020/12/16 01:24:30;;;;;;;60.87;36.63;;;3.80;99.90;;;;;;4991299;28;20755;-68
2020/12/16 01:26:56;;;;;;;74.40;39.57;;;3.90;99.90;;;;;;4987270;28;20673;-69
2020/12/16 01:29:22;;;;;;;74.83;41.03;;;4.00;99.90;;;;;;4987071;28;20918;-69
2020/12/16 01:31:50;;;;;;;84.27;40.83;;;4.20;99.90;;;;;;4989567;28;20272;-68
2020/12/16 01:34:19;;;;;;;90.33;45.23;;;4.20;99.90;;;;;;4982401;28;20599;-68
2020/12/16 01:36:48;;;;;;;100.73;45.30;;;4.40;99.90;;;;;;4990115;28;20202;-69
2020/12/16 01:39:15;;;;;;;94.03;44.57;;;4.50;99.90;;;;;;4991472;28;20228;-68
2020/12/16 01:41:43;;;;;;;89.83;44.20;;;4.50;99.90;;;;;;4983414;28;21189;-69
2020/12/16 01:44:11;;;;;;;99.07;43.60;;;4.40;99.90;;;;;;4989414;28;20297;-68
2020/12/16 01:46:44;;;;;;;91.80;44.80;;;4.50;99.90;;;;;;4987156;28;20233;-69
2020/12/16 01:49:10;;;;;;;92.13;44.23;;;4.50;99.90;;;;;;4986986;28;20232;-68
2020/12/16 01:51:38;;;;;;;106.40;45.53;;;4.50;99.90;;;;;;4988642;28;20225;-68
2020/12/16 01:54:07;;;;;;;116.73;46.73;;;4.50;99.90;;;;;;4988207;28;20198;-68
2020/12/16 01:56:38;;;;;;;96.47;43.03;;;4.40;99.90;;;;;;4988158;28;20235;-68
2020/12/16 01:59:06;;;;;;;108.00;44.87;;;4.40;99.90;;;;;;4988188;28;20244;-68
2020/12/16 02:01:35;;;;;;;132.47;48.47;;;4.30;99.90;;;;;;4983924;28;22970;-68
2020/12/16 02:04:03;;;;;;;103.80;44.20;;;4.20;99.90;;;;;;4991289;28;20202;-69
2020/12/16 02:06:33;;;;;;;108.47;43.97;;;4.20;99.90;;;;;;4991806;28;20236;-68
2020/12/16 02:09:04;;;;;;;90.37;41.57;;;4.20;99.90;;;;;;4995110;28;20513;-69
2020/12/16 02:11:31;;;;;;;113.47;42.57;;;4.10;99.90;;;;;;4989922;28;20232;-68
2020/12/16 02:13:58;;;;;;;90.27;41.90;;;4.10;99.90;;;;;;4991612;28;20229;-68
2020/12/16 02:16:24;;;;;;;122.80;46.80;;;4.10;99.90;;;;;;4991825;28;20287;-68
2020/12/16 02:18:52;;;;;;;116.63;43.80;;;4.00;99.90;;;;;;4990966;28;20335;-69
2020/12/16 02:21:19;;;;;;;89.57;40.37;;;4.00;99.90;;;;;;4991342;28;20259;-68
2020/12/16 02:23:47;;;;;;;92.73;41.73;;;4.00;99.90;;;;;;4989244;28;20285;-68
2020/12/16 02:26:15;;;;;;;103.10;42.23;;;3.90;99.90;;;;;;4990311;28;20196;-68
2020/12/16 02:28:42;;;;;;;90.63;38.93;;;3.90;99.90;;;;;;4993065;28;20244;-69
2020/12/16 02:31:09;;;;;;;91.70;40.50;;;3.90;99.90;;;;;;4987397;28;20241;-68
2020/12/16 02:33:36;;;;;;;100.10;40.33;;;3.90;99.90;;;;;;4991018;28;20201;-67
2020/12/16 02:36:02;;;;;;;97.93;40.53;;;3.90;99.90;;;;;;4988867;28;20308;-68
2020/12/16 02:38:29;;;;;;;104.10;40.93;;;3.90;99.90;;;;;;4991971;28;20224;-68
2020/12/16 02:40:55;;;;;;;98.13;41.63;;;4.00;99.90;;;;;;4992437;28;20558;-67
2020/12/16 02:43:23;;;;;;;92.67;40.50;;;4.00;99.90;;;;;;4994363;28;20216;-68
2020/12/16 02:45:49;;;;;;;123.10;44.17;;;4.10;99.90;;;;;;4993834;28;20216;-68
2020/12/16 02:48:15;;;;;;;124.27;44.87;;;4.20;99.90;;;;;;4990500;28;20212;-68
2020/12/16 02:50:42;;;;;;;141.67;47.77;;;4.20;99.90;;;;;;4989238;28;20895;-69
2020/12/16 02:53:08;;;;;;;142.93;46.90;;;4.20;99.90;;;;;;4989540;28;20240;-68
2020/12/16 02:55:35;;;;;;;112.53;44.10;;;4.20;99.90;;;;;;4987566;28;20628;-68
2020/12/16 02:58:01;;;;;;;115.90;42.70;;;4.20;99.90;;;;;;4991866;28;20233;-67
2020/12/16 03:00:28;;;;;;;126.93;43.33;;;4.10;99.90;;;;;;4988586;28;20283;-68
2020/12/16 03:02:55;;;;;;;116.93;43.47;;;4.20;99.90;;;;;;4992343;28;20213;-68
2020/12/16 03:05:21;;;;;;;123.10;43.57;;;4.20;99.90;;;;;;4992647;28;20204;-68
2020/12/16 03:07:48;;;;;;;133.10;46.37;;;4.40;99.90;;;;;;4990974;28;20209;-69
2020/12/16 03:10:14;;;;;;;109.40;43.27;;;4.50;99.90;;;;;;4992168;28;20236;-68
2020/12/16 03:12:40;;;;;;;126.97;44.87;;;4.70;99.90;;;;;;4986472;28;20205;-69
2020/12/16 03:15:07;;;;;;;122.77;44.60;;;4.80;99.90;;;;;;4991106;28;20243;-67
2020/12/16 03:17:34;;;;;;;113.57;44.50;;;4.90;99.90;;;;;;4989934;28;20204;-69
2020/12/16 03:20:01;;;;;;;117.57;44.20;;;4.90;99.90;;;;;;4992267;28;20680;-68
2020/12/16 03:22:29;;;;;;;138.27;46.57;;;5.10;99.90;;;;;;4995478;28;20338;-68
2020/12/16 03:24:55;;;;;;;149.33;48.93;;;5.30;99.90;;;;;;4987338;28;20561;-68
2020/12/16 03:27:22;;;;;;;123.17;44.87;;;5.20;99.90;;;;;;4993497;28;20245;-69
2020/12/16 03:29:48;;;;;;;127.43;44.43;;;5.30;99.90;;;;;;4984876;28;20193;-67
2020/12/16 03:32:15;;;;;;;134.20;45.60;;;5.40;99.90;;;;;;4988372;28;20702;-68
2020/12/16 03:34:42;;;;;;;142.00;48.57;;;5.60;99.90;;;;;;4989149;28;20205;-68
2020/12/16 03:37:09;;;;;;;153.07;48.13;;;5.70;99.90;;;;;;4988502;28;20678;-68
2020/12/16 03:39:35;;;;;;;137.13;47.60;;;5.80;99.90;;;;;;4994308;28;20205;-69
2020/12/16 03:42:02;;;;;;;139.13;45.40;;;5.90;99.90;;;;;;4993969;28;20713;-68
2020/12/16 03:44:28;;;;;;;131.77;43.73;;;5.90;99.90;;;;;;4985857;28;20229;-68
2020/12/16 03:46:54;;;;;;;145.17;45.17;;;5.90;99.90;;;;;;4988124;28;20204;-71
2020/12/16 03:49:21;;;;;;;128.13;42.00;;;5.80;99.90;;;;;;4987372;28;20210;-70
2020/12/16 03:51:53;;;;;;;136.97;43.90;;;5.70;99.90;;;;;;4988659;28;20261;-70
2020/12/16 03:54:19;;;;;;;127.77;42.20;;;5.70;99.90;;;;;;4989522;28;20225;-69
2020/12/16 03:56:47;;;;;;;124.73;41.53;;;5.70;99.90;;;;;;4989695;28;20220;-70
2020/12/16 03:59:13;;;;;;;115.20;40.03;;;5.70;99.90;;;;;;4989213;28;20205;-69
2020/12/16 04:01:40;;;;;;;118.80;41.27;;;5.70;99.90;;;;;;4989028;28;20201;-69
2020/12/16 04:04:06;;;;;;;121.87;42.30;;;5.60;99.90;;;;;;4989807;28;20313;-70
2020/12/16 04:06:33;;;;;;;141.00;42.80;;;5.70;99.90;;;;;;4989100;28;20195;-70
2020/12/16 04:09:00;;;;;;;130.37;44.57;;;5.80;99.90;;;;;;4988921;28;20232;-70
2020/12/16 04:11:27;;;;;;;126.37;43.60;;;5.80;99.90;;;;;;4992556;28;20226;-69
2020/12/16 04:13:53;;;;;;;122.23;42.73;;;5.80;99.90;;;;;;4988562;28;20227;-69
2020/12/16 04:16:21;;;;;;;123.77;44.27;;;5.70;99.90;;;;;;4988392;28;20205;-69
2020/12/16 04:18:48;;;;;;;129.07;43.10;;;5.80;99.90;;;;;;4988236;28;20230;-69
2020/12/16 04:21:16;;;;;;;124.97;41.47;;;5.70;99.90;;;;;;4988443;28;20202;-69
2020/12/16 04:23:42;;;;;;;128.53;41.63;;;5.70;99.90;;;;;;4988505;28;20220;-69
2020/12/16 04:26:10;;;;;;;115.63;39.80;;;5.60;99.90;;;;;;4987830;28;20632;-69
2020/12/16 04:28:37;;;;;;;130.83;40.87;;;5.60;99.90;;;;;;4988666;28;20206;-69
2020/12/16 04:31:06;;;;;;;145.60;40.87;;;5.70;99.90;;;;;;4988438;28;20221;-69
2020/12/16 04:33:33;;;;;;;163.93;43.87;;;5.70;99.90;;;;;;4987237;28;20206;-69
2020/12/16 04:35:59;;;;;;;170.60;42.60;;;5.80;99.90;;;;;;4987774;28;20198;-69
2020/12/16 04:38:26;;;;;;;190.03;43.73;;;5.80;99.90;;;;;;4989582;28;20582;-68
2020/12/16 04:40:52;;;;;;;182.97;43.33;;;5.80;99.90;;;;;;4991061;28;20682;-69
2020/12/16 04:43:22;;;;;;;137.73;37.73;;;5.90;99.90;;;;;;4987708;28;20646;-68
2020/12/16 04:45:49;;;;;;;157.57;39.27;;;5.90;99.90;;;;;;4989232;28;20197;-68
2020/12/16 04:48:17;;;;;;;146.37;38.33;;;5.90;99.90;;;;;;4988395;28;20193;-68
2020/12/16 04:50:44;;;;;;;151.90;37.80;;;5.90;99.90;;;;;;4987963;28;20300;-68
2020/12/16 04:53:13;;;;;;;129.00;34.67;;;5.90;99.90;;;;;;4987883;28;20228;-68
2020/12/16 04:55:40;;;;;;;127.67;35.60;;;5.90;99.90;;;;;;4996153;28;20202;-69
2020/12/16 04:58:08;;;;;;;104.23;31.37;;;6.00;99.90;;;;;;4989033;28;20297;-69
2020/12/16 05:00:36;;;;;;;114.87;32.97;;;5.90;99.90;;;;;;4987873;28;20229;-68
2020/12/16 05:03:05;;;;;;;131.00;33.00;;;6.00;99.90;;;;;;4988007;28;20198;-69
2020/12/16 05:05:32;;;;;;;118.17;31.90;;;5.90;99.90;;;;;;4987329;28;20223;-68
2020/12/16 05:08:08;;;;;;;114.97;32.50;;;5.90;99.90;;;;;;4990709;28;20202;-69
2020/12/16 05:10:36;;;;;;;112.90;31.80;;;5.90;99.90;;;;;;4987824;28;20252;-68
2020/12/16 05:13:05;;;;;;;134.30;35.63;;;5.90;99.90;;;;;;4987297;28;20303;-69
2020/12/16 05:15:32;;;;;;;127.27;34.53;;;5.90;99.90;;;;;;4988254;28;20198;-68
2020/12/16 05:18:14;;;;;;;142.70;35.80;;;6.00;99.90;;;;;;4987615;28;20321;-68
2020/12/16 05:20:42;;;;;;;136.50;34.40;;;6.00;99.90;;;;;;4989475;28;20270;-69
2020/12/16 05:23:09;;;;;;;111.60;29.83;;;6.00;99.90;;;;;;4986575;28;20334;-69
2020/12/16 05:25:36;;;;;;;147.67;36.03;;;6.00;99.90;;;;;;4988941;28;20245;-69
2020/12/16 05:28:03;;;;;;;150.40;35.10;;;6.00;99.90;;;;;;4987350;28;20205;-68
2020/12/16 05:30:30;;;;;;;150.70;35.13;;;6.10;99.90;;;;;;4990270;28;20263;-69
2020/12/16 05:33:02;;;;;;;138.87;34.20;;;6.10;99.90;;;;;;4986833;28;20565;-68
2020/12/16 05:35:31;;;;;;;159.13;35.57;;;6.10;99.90;;;;;;4987136;28;20209;-68
2020/12/16 05:38:02;;;;;;;186.53;39.17;;;6.10;99.90;;;;;;4991059;28;20567;-68
2020/12/16 05:40:30;;;;;;;213.73;40.63;;;6.10;99.90;;;;;;4987749;28;20201;-68
2020/12/16 05:42:57;;;;;;;159.50;39.23;;;6.10;99.90;;;;;;4986345;28;20587;-70
2020/12/16 05:45:25;;;;;;;155.13;39.20;;;6.20;99.90;;;;;;4986572;28;20288;-68
2020/12/16 05:48:00;;;;;;;177.43;38.97;;;6.20;99.90;;;;;;4987487;28;20202;-68
2020/12/16 05:50:32;;;;;;;156.10;38.20;;;6.20;99.90;;;;;;4986562;28;20279;-68
2020/12/16 05:53:13;;;;;;;161.77;38.53;;;6.20;99.90;;;;;;4990102;28;20570;-69
2020/12/16 05:55:40;;;;;;;159.80;39.33;;;6.20;99.90;;;;;;4987551;28;21047;-69
2020/12/16 05:58:08;;;;;;;139.03;35.57;;;6.20;99.90;;;;;;4987581;28;20253;-68
2020/12/16 06:00:43;;;;;;;167.63;37.23;;;6.20;99.90;;;;;;4992345;28;20251;-69
2020/12/16 06:03:16;;;;;;;143.93;35.80;;;6.20;99.90;;;;;;4992564;28;20204;-69
2020/12/16 06:05:46;;;;;;;168.93;36.87;;;6.20;99.90;;;;;;4985435;28;20309;-68
2020/12/16 06:08:12;;;;;;;151.97;37.70;;;6.20;99.90;;;;;;4989976;28;20374;-69
2020/12/16 06:10:43;;;;;;;139.57;35.43;;;6.20;99.90;;;;;;4986707;28;20251;-68
2020/12/16 06:13:13;;;;;;;141.87;35.00;;;6.20;99.90;;;;;;4986723;28;20324;-68
2020/12/16 06:15:52;;;;;;;181.63;36.97;;;6.20;99.90;;;;;;4988706;28;20205;-68
2020/12/16 06:18:19;;;;;;;151.43;35.03;;;6.20;99.90;;;;;;4987280;28;20201;-69
2020/12/16 06:20:48;;;;;;;143.63;33.63;;;6.20;99.90;;;;;;4987050;28;20202;-69
2020/12/16 06:23:30;;;;;;;138.87;35.30;;;6.20;99.90;;;;;;4986813;28;20248;-69
2020/12/16 06:25:58;;;;;;;183.23;37.50;;;6.30;99.90;;;;;;4986906;28;20233;-70
2020/12/16 06:28:25;;;;;;;161.43;37.70;;;6.30;99.90;;;;;;4988121;28;20230;-69
2020/12/16 06:30:55;;;;;;;197.33;40.07;;;6.30;99.90;;;;;;4987179;28;20275;-69
2020/12/16 06:33:44;;;;;;;174.90;38.90;;;6.30;99.90;;;;;;4988720;28;20212;-70
2020/12/16 06:36:12;;;;;;;173.87;39.27;;;6.40;99.90;;;;;;4985437;28;20225;-70
2020/12/16 06:38:41;;;;;;;194.10;40.33;;;6.40;99.90;;;;;;4997818;28;20209;-69
2020/12/16 06:41:21;;;;;;;215.13;43.77;;;6.50;99.90;;;;;;4992533;28;20262;-69
2020/12/16 06:43:48;;;;;;;191.30;41.80;;;6.50;99.90;;;;;;4991367;28;20647;-69
2020/12/16 06:46:42;;;;;;;234.60;45.37;;;6.60;99.90;;;;;;4994856;28;20670;-69
2020/12/16 06:49:25;;;;;;;198.93;43.60;;;6.60;99.90;;;;;;4984605;28;20236;-69
2020/12/16 06:51:53;;;;;;;199.67;45.20;;;6.70;99.90;;;;;;4994653;28;20259;-69
2020/12/16 06:54:21;;;;;;;173.13;43.07;;;6.70;99.90;;;;;;4995434;28;20205;-69
2020/12/16 06:56:50;;;;;;;191.53;44.57;;;6.70;99.90;;;;;;4995401;28;20232;-69
2020/12/16 06:59:46;;;;;;;186.67;42.53;;;6.80;99.90;;;;;;4988681;28;20233;-69
2020/12/16 07:02:14;;;;;;;153.90;39.17;;;6.80;99.90;;;;;;4986239;28;20194;-69
2020/12/16 07:04:40;;;;;;;159.23;37.97;;;6.90;99.90;;;;;;4990647;28;20628;-69
2020/12/16 07:07:29;;;;;;;149.07;37.67;;;6.90;99.90;;;;;;4992985;28;20228;-70
2020/12/16 07:09:55;;;;;;;136.27;36.70;;;6.90;99.90;;;;;;4988561;28;20229;-69
2020/12/16 07:12:29;;;;;;;141.10;35.77;;;6.90;99.90;;;;;;4988447;28;20327;-69
2020/12/16 07:14:57;;;;;;;126.83;33.90;;;6.90;99.90;;;;;;4985775;28;20194;-69
2020/12/16 07:17:23;;;;;;;135.53;34.80;;;6.90;99.90;;;;;;4986629;28;20205;-69
2020/12/16 07:19:50;;;;;;;117.00;33.13;;;6.90;99.90;;;;;;4984463;28;20316;-70
2020/12/16 07:22:18;;;;;;;119.07;33.43;;;7.00;99.90;;;;;;4992931;28;20255;-70
2020/12/16 07:24:48;;;;;;;102.60;30.77;;;7.00;99.90;;;;;;4988945;28;20469;-69
2020/12/16 07:27:20;;;;;;;117.90;33.23;;;7.00;99.90;;;;;;4990360;28;20232;-69
2020/12/16 07:29:56;;;;;;;104.07;31.23;;;7.00;99.90;;;;;;4991553;28;20212;-69
2020/12/16 07:32:23;;;;;;;101.83;31.23;;;7.00;99.90;;;;;;4992519;28;20217;-69
2020/12/16 07:34:51;;;;;;;105.57;33.07;;;7.10;99.90;;;;;;4991073;28;20303;-69
2020/12/16 07:37:21;;;;;;;102.80;33.60;;;7.10;99.90;;;;;;4991040;28;20300;-69
2020/12/16 07:39:49;;;;;;;116.53;33.83;;;7.10;99.90;;;;;;4990770;28;20209;-69
2020/12/16 07:42:21;;;;;;;102.00;31.93;;;7.20;99.90;;;;;;4989074;28;20201;-69
2020/12/16 07:44:47;;;;;;;108.97;34.50;;;7.20;99.90;;;;;;4989677;28;20247;-69
2020/12/16 07:47:16;;;;;;;107.87;33.90;;;7.20;99.90;;;;;;4989398;28;20204;-69
2020/12/16 07:49:43;;;;;;;87.83;31.23;;;7.20;99.90;;;;;;4988696;28;20312;-69
2020/12/16 07:52:11;;;;;;;88.87;31.27;;;7.20;99.90;;;;;;4990006;28;20707;-69
2020/12/16 07:54:38;;;;;;;84.33;29.73;;;7.20;99.90;;;;;;4983630;28;20265;-68
2020/12/16 07:57:05;;;;;;;93.47;29.50;;;7.10;99.90;;;;;;4991023;28;20245;-69
2020/12/16 07:59:34;;;;;;;84.53;30.07;;;7.10;99.90;;;;;;4988023;28;20220;-69
2020/12/16 08:02:09;;;;;;;89.83;30.00;;;7.10;99.90;;;;;;4987812;28;20205;-69
2020/12/16 08:04:35;;;;;;;86.03;30.33;;;7.20;99.90;;;;;;4989025;28;20579;-69
2020/12/16 08:07:13;;;;;;;75.93;28.37;;;7.20;99.90;;;;;;4988494;28;20198;-69
2020/12/16 08:09:54;;;;;;;75.57;26.17;;;7.20;99.90;;;;;;4991300;28;20288;-69
2020/12/16 08:12:21;;;;;;;64.50;25.70;;;7.30;99.90;;;;;;4988650;28;20217;-69
2020/12/16 08:14:48;;;;;;;65.50;25.47;;;7.30;99.90;;;;;;4991470;28;20225;-69
2020/12/16 08:17:15;;;;;;;69.70;26.63;;;7.30;99.90;;;;;;4988381;28;20219;-69
2020/12/16 08:19:41;;;;;;;60.80;25.47;;;7.30;99.90;;;;;;4987127;28;20293;-69
2020/12/16 08:22:12;;;;;;;67.40;27.07;;;7.30;99.90;;;;;;4989213;28;20212;-69
2020/12/16 08:24:39;;;;;;;67.80;26.50;;;7.30;99.90;;;;;;4987432;28;20662;-69
2020/12/16 08:27:06;;;;;;;70.67;26.27;;;7.40;99.90;;;;;;4987695;28;20203;-69
2020/12/16 08:29:36;;;;;;;67.40;25.20;;;7.40;99.90;;;;;;4988494;28;20202;-69
2020/12/16 08:32:05;;;;;;;72.63;26.77;;;7.40;99.90;;;;;;4995806;28;20224;-69
2020/12/16 08:34:36;;;;;;;67.47;25.30;;;7.50;99.90;;;;;;4998097;28;21141;-69
2020/12/16 08:37:10;;;;;;;78.83;26.47;;;7.40;99.90;;;;;;4991829;28;20268;-69
2020/12/16 08:39:42;;;;;;;68.03;25.60;;;7.40;99.90;;;;;;4989176;28;20213;-70
2020/12/16 08:42:12;;;;;;;71.27;25.23;;;7.40;99.90;;;;;;4987109;28;20714;-68
2020/12/16 08:44:38;;;;;;;72.10;26.90;;;7.40;99.90;;;;;;4988059;28;20209;-69
2020/12/16 08:47:05;;;;;;;70.27;27.50;;;7.40;99.90;;;;;;5010253;28;20753;-69
2020/12/16 08:49:31;;;;;;;69.13;26.20;;;7.40;99.90;;;;;;4997611;28;20260;-69
2020/12/16 08:51:58;;;;;;;72.00;26.87;;;7.40;99.90;;;;;;5003125;28;20569;-69
2020/12/16 08:54:26;;;;;;;68.87;26.27;;;7.40;99.90;;;;;;5010519;28;20236;-68
2020/12/16 08:56:54;;;;;;;68.37;26.40;;;7.40;99.90;;;;;;5012924;28;20201;-69
2020/12/16 08:59:26;;;;;;;72.13;28.00;;;7.30;99.90;;;;;;5013097;28;20232;-69
2020/12/16 09:01:53;;;;;;;70.10;27.70;;;7.30;99.90;;;;;;5012092;28;20244;-68
2020/12/16 09:04:25;;;;;;;68.90;27.10;;;7.30;99.90;;;;;;5011103;28;20275;-69
2020/12/16 09:07:05;;;;;;;66.47;26.43;;;7.40;99.90;;;;;;4998675;28;20276;-69
2020/12/16 09:09:33;;;;;;;69.80;26.77;;;7.40;99.90;;;;;;5009873;28;20197;-68
2020/12/16 09:12:00;;;;;;;67.73;28.93;;;7.50;99.90;;;;;;5008330;28;20233;-69
2020/12/16 09:14:27;;;;;;;74.50;29.77;;;7.50;99.90;;;;;;5011704;28;20654;-68
2020/12/16 09:16:54;;;;;;;66.17;28.37;;;7.60;99.90;;;;;;5012565;28;20568;-69
2020/12/16 09:19:22;;;;;;;66.30;30.13;;;7.60;99.90;;;;;;5011586;28;20648;-69
2020/12/16 09:21:51;;;;;;;65.83;29.20;;;7.70;99.90;;;;;;5011866;28;20650;-68
2020/12/16 09:24:22;;;;;;;59.07;28.43;;;7.70;99.90;;;;;;5008381;28;20201;-68
2020/12/16 09:26:50;;;;;;;55.83;26.63;;;7.70;99.90;;;;;;5012815;28;20299;-67
2020/12/16 09:29:19;;;;;;;61.80;28.10;;;7.80;99.90;;;;;;5012555;28;20204;-67
2020/12/16 09:31:48;;;;;;;61.23;27.70;;;7.90;99.90;;;;;;5010879;28;20228;-67
2020/12/16 09:34:15;;;;;;;77.50;31.97;;;8.10;99.90;;;;;;5012751;28;20232;-68
2020/12/16 09:36:42;;;;;;;76.20;29.97;;;8.30;99.90;;;;;;5011298;28;20208;-69
2020/12/16 09:39:10;;;;;;;66.13;27.60;;;8.50;99.90;;;;;;5007247;28;20206;-68
2020/12/16 09:41:48;;;;;;;66.47;28.13;;;8.70;99.90;;;;;;5009994;28;20569;-68
2020/12/16 09:44:38;;;;;;;72.60;28.70;;;8.80;99.90;;;;;;5009760;28;20666;-68
2020/12/16 09:47:17;;;;;;;78.97;30.67;;;8.90;99.90;;;;;;4997978;28;20208;-68
2020/12/16 09:49:45;;;;;;;73.87;30.60;;;9.20;99.90;;;;;;5010594;28;20564;-68
2020/12/16 09:52:27;;;;;;;72.83;28.20;;;9.30;99.90;;;;;;5012460;28;20225;-67
2020/12/16 09:54:54;;;;;;;69.97;28.37;;;9.40;99.90;;;;;;5002636;28;20208;-69
2020/12/16 09:57:22;;;;;;;66.60;28.90;;;9.50;99.90;;;;;;4997780;28;20221;-67
2020/12/16 09:59:48;;;;;;;65.37;28.63;;;9.40;99.90;;;;;;4990661;28;20202;-68
2020/12/16 10:02:16;;;;;;;70.37;28.47;;;9.20;99.90;;;;;;4987358;28;20229;-70
2020/12/16 10:04:43;;;;;;;67.47;27.23;;;9.10;99.90;;;;;;4988902;28;20682;-67
2020/12/16 10:07:10;;;;;;;58.27;25.17;;;8.90;99.90;;;;;;4986014;28;20222;-69
2020/12/16 10:09:38;;;;;;;63.70;26.67;;;8.80;99.90;;;;;;4996746;28;20658;-68
2020/12/16 10:12:05;;;;;;;64.73;26.50;;;8.80;99.90;;;;;;4999313;28;20248;-67
2020/12/16 10:14:31;;;;;;;66.87;28.03;;;8.70;99.90;;;;;;4998496;28;20234;-68
2020/12/16 10:16:58;;;;;;;64.43;26.47;;;8.60;99.90;;;;;;4997154;28;20202;-69
2020/12/16 10:19:27;;;;;;;57.20;26.90;;;8.60;99.90;;;;;;4997193;28;20261;-69
2020/12/16 10:21:53;;;;;;;69.00;29.00;;;8.60;99.90;;;;;;4996896;28;20296;-68
2020/12/16 10:24:20;;;;;;;58.47;26.27;;;8.80;99.90;;;;;;4997711;28;20200;-68
2020/12/16 10:26:47;;;;;;;63.83;29.03;;;8.90;99.90;;;;;;5000933;28;20563;-68
2020/12/16 10:29:16;;;;;;;55.80;26.13;;;9.10;99.90;;;;;;4999220;28;20230;-69
2020/12/16 10:31:47;;;;;;;52.73;24.83;;;9.20;99.90;;;;;;5000175;28;20228;-68
2020/12/16 10:34:13;;;;;;;49.43;24.30;;;9.10;99.90;;;;;;5003221;28;20290;-69
2020/12/16 10:36:41;;;;;;;48.40;23.40;;;9.30;99.90;;;;;;5001221;28;20197;-69
2020/12/16 10:39:07;;;;;;;42.53;22.77;;;9.60;99.90;;;;;;5000856;28;20244;-69
2020/12/16 10:41:35;;;;;;;42.60;21.67;;;9.70;99.90;;;;;;5000977;28;20232;-69
2020/12/16 10:44:02;;;;;;;37.53;20.77;;;9.60;99.90;;;;;;5000240;28;20347;-69
2020/12/16 10:46:28;;;;;;;34.77;19.93;;;9.70;99.90;;;;;;4998945;28;20205;-66
2020/12/16 10:48:55;;;;;;;32.87;18.83;;;9.60;99.90;;;;;;4997665;28;20198;-69
2020/12/16 10:51:25;;;;;;;34.10;18.70;;;9.60;99.90;;;;;;5000708;28;20228;-69
2020/12/16 10:53:53;;;;;;;29.17;17.70;;;9.50;99.90;;;;;;4999287;28;20654;-69
2020/12/16 10:56:19;;;;;;;32.00;18.80;;;9.60;99.90;;;;;;4999926;28;20209;-69
2020/12/16 10:58:46;;;;;;;30.90;18.40;;;9.80;99.90;;;;;;5001045;28;20222;-70
2020/12/16 11:01:13;;;;;;;28.97;17.07;;;9.90;99.90;;;;;;4997304;28;20209;-69
2020/12/16 11:03:39;;;;;;;22.13;14.80;;;9.90;99.90;;;;;;5001515;28;20236;-70
2020/12/16 11:06:06;;;;;;;20.53;13.53;;;9.80;99.90;;;;;;4999827;28;20943;-69
2020/12/16 11:08:33;;;;;;;20.57;14.63;;;9.60;99.90;;;;;;5000366;28;20205;-68
2020/12/16 11:10:59;;;;;;;19.13;14.13;;;9.70;99.90;;;;;;5000149;28;20216;-68
2020/12/16 11:13:26;;;;;;;17.67;12.93;;;9.80;99.90;;;;;;4998878;28;20197;-69
2020/12/16 11:15:53;;;;;;;16.47;12.03;;;10.00;99.90;;;;;;5000691;28;20331;-69
2020/12/16 11:18:20;;;;;;;15.10;11.80;;;9.90;99.90;;;;;;5000844;28;20193;-69
2020/12/16 11:20:46;;;;;;;15.87;11.30;;;9.70;99.90;;;;;;4997202;28;20237;-69
2020/12/16 11:23:13;;;;;;;13.80;11.00;;;9.70;99.90;;;;;;4992982;28;20205;-70
2020/12/16 11:25:39;;;;;;;15.00;11.73;;;9.60;99.90;;;;;;4993968;28;20208;-68
2020/12/16 11:28:06;;;;;;;14.93;11.10;;;9.50;99.90;;;;;;4992883;28;20209;-69
2020/12/16 11:30:32;;;;;;;12.63;11.00;;;9.40;99.90;;;;;;4990403;28;20205;-69
2020/12/16 11:33:00;;;;;;;13.37;11.10;;;9.40;99.90;;;;;;4994824;28;20227;-69
2020/12/16 11:35:26;;;;;;;13.23;11.23;;;9.40;99.90;;;;;;4996232;28;20205;-69
2020/12/16 11:37:53;;;;;;;13.83;11.30;;;9.50;99.90;;;;;;4999229;28;20206;-69
2020/12/16 11:40:19;;;;;;;14.83;11.40;;;9.60;99.90;;;;;;4999125;28;20209;-69
2020/12/16 11:42:46;;;;;;;16.30;10.80;;;9.80;99.90;;;;;;4998292;28;20197;-69
2020/12/16 11:45:12;;;;;;;16.70;11.03;;;9.80;99.90;;;;;;4999098;28;20728;-70
2020/12/16 11:47:39;;;;;;;13.80;10.70;;;9.90;99.90;;;;;;4998542;28;20201;-68
2020/12/16 11:50:08;;;;;;;11.63;10.30;;;10.00;99.90;;;;;;4998939;28;20255;-69
2020/12/16 11:52:35;;;;;;;11.27;9.17;;;10.10;99.90;;;;;;4998011;28;20255;-68
2020/12/16 11:55:01;;;;;;;12.13;9.63;;;10.10;99.90;;;;;;4998609;28;20252;-69
2020/12/16 11:57:28;;;;;;;10.77;9.27;;;10.20;99.90;;;;;;5000151;28;20772;-69
2020/12/16 11:59:54;;;;;;;14.23;9.27;;;10.20;99.90;;;;;;4999625;28;20208;-68
2020/12/16 12:02:21;;;;;;;10.37;8.83;;;10.30;99.90;;;;;;4997078;28;20790;-68
2020/12/16 12:04:47;;;;;;;9.83;8.27;;;10.50;99.90;;;;;;4998825;28;20267;-68
2020/12/16 12:07:14;;;;;;;9.83;7.67;;;10.70;99.90;;;;;;4999316;28;20683;-68
2020/12/16 12:09:41;;;;;;;9.87;8.13;;;10.90;99.90;;;;;;4998924;28;20200;-68
2020/12/16 12:12:07;;;;;;;9.07;7.40;;;10.90;99.90;;;;;;4997295;28;20308;-68
2020/12/16 12:14:34;;;;;;;10.57;7.77;;;11.00;99.90;;;;;;4999267;28;20201;-67
2020/12/16 12:17:00;;;;;;;8.67;6.97;;;11.10;99.90;;;;;;4998812;28;20260;-68
2020/12/16 12:19:27;;;;;;;8.40;7.50;;;11.20;99.90;;;;;;4997393;28;20279;-68
2020/12/16 12:21:53;;;;;;;8.83;6.17;;;11.30;99.90;;;;;;4996626;28;20205;-69
2020/12/16 12:24:21;;;;;;;6.90;6.10;;;11.50;99.90;;;;;;4997882;28;20201;-68
2020/12/16 12:26:47;;;;;;;8.20;6.67;;;11.70;99.90;;;;;;4997392;28;20209;-67
2020/12/16 12:29:14;;;;;;;8.60;6.30;;;11.60;99.90;;;;;;4998459;28;20197;-68
2020/12/16 12:31:43;;;;;;;8.07;6.60;;;11.50;99.90;;;;;;4988319;28;20225;-69
2020/12/16 12:34:09;;;;;;;7.03;6.33;;;11.40;99.90;;;;;;4989923;28;20243;-66
2020/12/16 12:36:36;;;;;;;7.20;6.23;;;11.20;99.90;;;;;;4989876;28;20594;-69
2020/12/16 12:39:03;;;;;;;8.03;6.20;;;11.20;99.90;;;;;;4990677;28;20201;-68